sensor_id;sensor_type;location;lat;lon;timestamp;P1;durP1;ratioP1;P2;durP2;ratioP2
48317;SDS011;34127;47.412;9.730;2022-10-16T00:01:32;5.10;;;2.10;;
48317;SDS011;34127;47.412;9.730;2022-10-16T00:03:59;7.05;;;2.25;;
48317;SDS011;34127;47.412;9.730;2022-10-16T00:06:25;4.07;;;2.05;;
48317;SDS011;34127;47.412;9.730;2022-10-16T00:08:52;6.90;;;2.13;;
48317;SDS011;34127;47.412;9.730;2022-10-16T00:11:19;6.55;;;2.10;;
48317;SDS011;34127;47.412;9.730;2022-10-16T00:13:46;4.35;;;2.00;;
48317;SDS011;34127;47.412;9.730;2022-10-16T00:16:13;8.25;;;2.08;;
48317;SDS011;34127;47.412;9.730;2022-10-16T00:18:40;10.52;;;2.00;;
48317;SDS011;34127;47.412;9.730;2022-10-16T00:21:40;7.38;;;2.10;;
48317;SDS011;34127;47.412;9.730;2022-10-16T00:24:00;6.80;;;2.00;;
48317;SDS011;34127;47.412;9.730;2022-10-16T00:26:27;5.47;;;2.10;;
48317;SDS011;34127;47.412;9.730;2022-10-16T00:28:54;7.85;;;2.05;;
48317;SDS011;34127;47.412;9.730;2022-10-16T00:31:21;6.57;;;2.22;;
48317;SDS011;34127;47.412;9.730;2022-10-16T00:33:47;6.47;;;2.20;;
48317;SDS011;34127;47.412;9.730;2022-10-16T00:36:15;6.10;;;2.13;;
48317;SDS011;34127;47.412;9.730;2022-10-16T00:38:41;8.48;;;2.08;;
48317;SDS011;34127;47.412;9.730;2022-10-16T00:41:10;9.93;;;2.80;;
48317;SDS011;34127;47.412;9.730;2022-10-16T00:46:20;6.63;;;2.20;;
48317;SDS011;34127;47.412;9.730;2022-10-16T00:48:51;6.13;;;2.08;;
48317;SDS011;34127;47.412;9.730;2022-10-16T00:51:19;8.57;;;2.60;;
48317;SDS011;34127;47.412;9.730;2022-10-16T00:53:47;10.07;;;2.88;;
48317;SDS011;34127;47.412;9.730;2022-10-16T00:56:13;5.22;;;2.28;;
48317;SDS011;34127;47.412;9.730;2022-10-16T00:58:40;6.57;;;2.60;;
48317;SDS011;34127;47.412;9.730;2022-10-16T01:01:06;5.93;;;2.20;;
48317;SDS011;34127;47.412;9.730;2022-10-16T01:03:34;6.00;;;2.30;;
48317;SDS011;34127;47.412;9.730;2022-10-16T01:11:19;9.85;;;2.65;;
48317;SDS011;34127;47.412;9.730;2022-10-16T01:13:50;15.13;;;3.05;;
48317;SDS011;34127;47.412;9.730;2022-10-16T01:16:28;7.28;;;2.85;;
48317;SDS011;34127;47.412;9.730;2022-10-16T01:19:02;4.95;;;2.50;;
48317;SDS011;34127;47.412;9.730;2022-10-16T01:21:32;7.03;;;2.50;;
48317;SDS011;34127;47.412;9.730;2022-10-16T01:24:03;8.23;;;2.45;;
48317;SDS011;34127;47.412;9.730;2022-10-16T01:31:50;5.95;;;2.22;;
48317;SDS011;34127;47.412;9.730;2022-10-16T01:34:22;8.52;;;2.25;;
48317;SDS011;34127;47.412;9.730;2022-10-16T01:36:59;7.20;;;2.30;;
48317;SDS011;34127;47.412;9.730;2022-10-16T01:39:28;5.80;;;2.30;;
48317;SDS011;34127;47.412;9.730;2022-10-16T01:41:58;6.32;;;2.30;;
48317;SDS011;34127;47.412;9.730;2022-10-16T01:44:28;6.93;;;2.22;;
48317;SDS011;34127;47.412;9.730;2022-10-16T01:46:55;5.40;;;2.20;;
48317;SDS011;34127;47.412;9.730;2022-10-16T01:49:21;4.88;;;2.38;;
48317;SDS011;34127;47.412;9.730;2022-10-16T01:51:49;6.35;;;2.13;;
48317;SDS011;34127;47.412;9.730;2022-10-16T01:54:16;6.93;;;2.60;;
48317;SDS011;34127;47.412;9.730;2022-10-16T01:56:44;7.20;;;2.50;;
48317;SDS011;34127;47.412;9.730;2022-10-16T01:59:16;7.75;;;2.47;;
48317;SDS011;34127;47.412;9.730;2022-10-16T02:01:44;6.53;;;2.40;;
48317;SDS011;34127;47.412;9.730;2022-10-16T02:04:13;8.18;;;2.60;;
48317;SDS011;34127;47.412;9.730;2022-10-16T02:06:40;5.75;;;2.00;;
48317;SDS011;34127;47.412;9.730;2022-10-16T02:09:06;5.90;;;2.20;;
48317;SDS011;34127;47.412;9.730;2022-10-16T02:11:33;6.35;;;2.30;;
48317;SDS011;34127;47.412;9.730;2022-10-16T02:14:00;5.90;;;2.63;;
48317;SDS011;34127;47.412;9.730;2022-10-16T02:16:34;8.20;;;2.63;;
48317;SDS011;34127;47.412;9.730;2022-10-16T02:19:01;15.50;;;2.72;;
48317;SDS011;34127;47.412;9.730;2022-10-16T02:21:33;4.93;;;1.80;;
48317;SDS011;34127;47.412;9.730;2022-10-16T02:24:07;8.77;;;2.28;;
48317;SDS011;34127;47.412;9.730;2022-10-16T02:26:40;6.53;;;2.60;;
48317;SDS011;34127;47.412;9.730;2022-10-16T02:29:10;9.70;;;2.53;;
48317;SDS011;34127;47.412;9.730;2022-10-16T02:31:38;3.75;;;2.22;;
48317;SDS011;34127;47.412;9.730;2022-10-16T02:34:07;6.93;;;2.50;;
48317;SDS011;34127;47.412;9.730;2022-10-16T02:36:35;5.07;;;2.50;;
48317;SDS011;34127;47.412;9.730;2022-10-16T02:39:02;7.43;;;2.40;;
48317;SDS011;34127;47.412;9.730;2022-10-16T02:41:28;3.28;;;2.10;;
48317;SDS011;34127;47.412;9.730;2022-10-16T02:43:55;10.10;;;2.60;;
48317;SDS011;34127;47.412;9.730;2022-10-16T02:46:21;9.48;;;2.47;;
48317;SDS011;34127;47.412;9.730;2022-10-16T02:48:47;5.82;;;2.65;;
48317;SDS011;34127;47.412;9.730;2022-10-16T02:51:13;4.47;;;2.50;;
48317;SDS011;34127;47.412;9.730;2022-10-16T02:53:39;5.43;;;2.50;;
48317;SDS011;34127;47.412;9.730;2022-10-16T02:56:05;6.63;;;2.70;;
48317;SDS011;34127;47.412;9.730;2022-10-16T02:58:32;6.95;;;2.38;;
48317;SDS011;34127;47.412;9.730;2022-10-16T03:00:58;4.25;;;2.20;;
48317;SDS011;34127;47.412;9.730;2022-10-16T03:03:24;4.50;;;2.45;;
48317;SDS011;34127;47.412;9.730;2022-10-16T03:05:51;4.78;;;2.38;;
48317;SDS011;34127;47.412;9.730;2022-10-16T03:08:17;10.30;;;3.70;;
48317;SDS011;34127;47.412;9.730;2022-10-16T03:10:48;7.15;;;2.40;;
48317;SDS011;34127;47.412;9.730;2022-10-16T03:13:15;7.20;;;2.40;;
48317;SDS011;34127;47.412;9.730;2022-10-16T03:15:41;8.73;;;2.55;;
48317;SDS011;34127;47.412;9.730;2022-10-16T03:18:07;8.70;;;2.88;;
48317;SDS011;34127;47.412;9.730;2022-10-16T03:20:33;8.35;;;2.80;;
48317;SDS011;34127;47.412;9.730;2022-10-16T03:22:59;5.97;;;2.58;;
48317;SDS011;34127;47.412;9.730;2022-10-16T03:25:27;12.73;;;3.10;;
48317;SDS011;34127;47.412;9.730;2022-10-16T03:27:53;4.30;;;2.60;;
48317;SDS011;34127;47.412;9.730;2022-10-16T03:30:19;5.93;;;2.75;;
48317;SDS011;34127;47.412;9.730;2022-10-16T03:32:46;8.88;;;2.90;;
48317;SDS011;34127;47.412;9.730;2022-10-16T03:35:12;5.88;;;2.90;;
48317;SDS011;34127;47.412;9.730;2022-10-16T03:37:38;5.70;;;3.15;;
48317;SDS011;34127;47.412;9.730;2022-10-16T03:40:05;5.60;;;3.03;;
48317;SDS011;34127;47.412;9.730;2022-10-16T03:42:31;7.18;;;3.03;;
48317;SDS011;34127;47.412;9.730;2022-10-16T03:44:57;12.00;;;2.65;;
48317;SDS011;34127;47.412;9.730;2022-10-16T03:47:23;13.77;;;3.83;;
48317;SDS011;34127;47.412;9.730;2022-10-16T03:49:49;9.50;;;2.95;;
48317;SDS011;34127;47.412;9.730;2022-10-16T03:52:16;10.18;;;2.90;;
48317;SDS011;34127;47.412;9.730;2022-10-16T03:54:42;8.75;;;2.70;;
48317;SDS011;34127;47.412;9.730;2022-10-16T03:57:09;10.23;;;2.83;;
48317;SDS011;34127;47.412;9.730;2022-10-16T03:59:35;4.55;;;2.38;;
48317;SDS011;34127;47.412;9.730;2022-10-16T04:02:01;6.88;;;2.53;;
48317;SDS011;34127;47.412;9.730;2022-10-16T04:04:30;6.15;;;2.42;;
48317;SDS011;34127;47.412;9.730;2022-10-16T04:06:56;6.65;;;2.53;;
48317;SDS011;34127;47.412;9.730;2022-10-16T04:09:22;5.65;;;2.28;;
48317;SDS011;34127;47.412;9.730;2022-10-16T04:11:48;6.72;;;2.40;;
48317;SDS011;34127;47.412;9.730;2022-10-16T04:14:14;6.13;;;2.28;;
48317;SDS011;34127;47.412;9.730;2022-10-16T04:16:40;9.35;;;2.30;;
48317;SDS011;34127;47.412;9.730;2022-10-16T04:19:06;5.30;;;2.40;;
48317;SDS011;34127;47.412;9.730;2022-10-16T04:21:33;9.75;;;2.55;;
48317;SDS011;34127;47.412;9.730;2022-10-16T04:23:59;6.70;;;2.22;;
48317;SDS011;34127;47.412;9.730;2022-10-16T04:26:25;6.68;;;2.03;;
48317;SDS011;34127;47.412;9.730;2022-10-16T04:28:51;8.80;;;1.83;;
48317;SDS011;34127;47.412;9.730;2022-10-16T04:31:17;5.63;;;1.90;;
48317;SDS011;34127;47.412;9.730;2022-10-16T04:33:43;4.28;;;2.00;;
48317;SDS011;34127;47.412;9.730;2022-10-16T04:36:10;5.63;;;2.03;;
48317;SDS011;34127;47.412;9.730;2022-10-16T04:38:36;8.43;;;2.47;;
48317;SDS011;34127;47.412;9.730;2022-10-16T04:41:02;5.13;;;1.98;;
48317;SDS011;34127;47.412;9.730;2022-10-16T04:43:29;6.35;;;2.05;;
48317;SDS011;34127;47.412;9.730;2022-10-16T04:45:55;6.30;;;2.10;;
48317;SDS011;34127;47.412;9.730;2022-10-16T04:48:22;6.57;;;2.17;;
48317;SDS011;34127;47.412;9.730;2022-10-16T04:50:48;12.77;;;3.10;;
48317;SDS011;34127;47.412;9.730;2022-10-16T04:53:14;6.03;;;2.40;;
48317;SDS011;34127;47.412;9.730;2022-10-16T04:55:40;8.02;;;2.30;;
48317;SDS011;34127;47.412;9.730;2022-10-16T04:58:07;7.93;;;2.50;;
48317;SDS011;34127;47.412;9.730;2022-10-16T05:00:33;7.85;;;2.35;;
48317;SDS011;34127;47.412;9.730;2022-10-16T05:03:00;5.57;;;2.20;;
48317;SDS011;34127;47.412;9.730;2022-10-16T05:05:26;3.22;;;2.15;;
48317;SDS011;34127;47.412;9.730;2022-10-16T05:07:53;6.60;;;2.47;;
48317;SDS011;34127;47.412;9.730;2022-10-16T05:10:19;4.63;;;2.28;;
48317;SDS011;34127;47.412;9.730;2022-10-16T05:12:45;8.13;;;2.38;;
48317;SDS011;34127;47.412;9.730;2022-10-16T05:15:12;7.15;;;2.10;;
48317;SDS011;34127;47.412;9.730;2022-10-16T05:17:38;6.65;;;2.45;;
48317;SDS011;34127;47.412;9.730;2022-10-16T05:20:04;3.28;;;1.80;;
48317;SDS011;34127;47.412;9.730;2022-10-16T05:22:30;7.78;;;2.40;;
48317;SDS011;34127;47.412;9.730;2022-10-16T05:24:56;9.02;;;2.25;;
48317;SDS011;34127;47.412;9.730;2022-10-16T05:27:23;5.90;;;2.30;;
48317;SDS011;34127;47.412;9.730;2022-10-16T05:29:49;4.45;;;2.08;;
48317;SDS011;34127;47.412;9.730;2022-10-16T05:32:15;10.20;;;2.15;;
48317;SDS011;34127;47.412;9.730;2022-10-16T05:34:42;5.22;;;1.60;;
48317;SDS011;34127;47.412;9.730;2022-10-16T05:37:08;2.53;;;1.60;;
48317;SDS011;34127;47.412;9.730;2022-10-16T05:39:34;5.72;;;1.60;;
48317;SDS011;34127;47.412;9.730;2022-10-16T05:42:02;4.00;;;1.67;;
48317;SDS011;34127;47.412;9.730;2022-10-16T05:44:28;4.05;;;2.15;;
48317;SDS011;34127;47.412;9.730;2022-10-16T05:46:54;4.95;;;1.90;;
48317;SDS011;34127;47.412;9.730;2022-10-16T05:49:20;4.25;;;1.85;;
48317;SDS011;34127;47.412;9.730;2022-10-16T05:51:47;4.50;;;2.88;;
48317;SDS011;34127;47.412;9.730;2022-10-16T05:54:13;6.13;;;2.22;;
48317;SDS011;34127;47.412;9.730;2022-10-16T05:56:39;7.55;;;3.00;;
48317;SDS011;34127;47.412;9.730;2022-10-16T05:59:05;8.38;;;2.38;;
48317;SDS011;34127;47.412;9.730;2022-10-16T06:01:32;8.02;;;2.17;;
48317;SDS011;34127;47.412;9.730;2022-10-16T06:03:58;4.85;;;2.38;;
48317;SDS011;34127;47.412;9.730;2022-10-16T06:06:25;4.85;;;2.20;;
48317;SDS011;34127;47.412;9.730;2022-10-16T06:08:52;16.02;;;3.78;;
48317;SDS011;34127;47.412;9.730;2022-10-16T06:11:20;6.63;;;2.63;;
48317;SDS011;34127;47.412;9.730;2022-10-16T06:13:50;5.93;;;2.38;;
48317;SDS011;34127;47.412;9.730;2022-10-16T06:16:16;6.60;;;2.58;;
48317;SDS011;34127;47.412;9.730;2022-10-16T06:18:42;4.25;;;2.10;;
48317;SDS011;34127;47.412;9.730;2022-10-16T06:21:09;6.95;;;2.60;;
48317;SDS011;34127;47.412;9.730;2022-10-16T06:23:36;7.20;;;3.17;;
48317;SDS011;34127;47.412;9.730;2022-10-16T06:26:09;8.68;;;3.08;;
48317;SDS011;34127;47.412;9.730;2022-10-16T06:28:35;10.05;;;3.33;;
48317;SDS011;34127;47.412;9.730;2022-10-16T06:31:02;6.47;;;3.53;;
48317;SDS011;34127;47.412;9.730;2022-10-16T06:33:28;7.30;;;3.83;;
48317;SDS011;34127;47.412;9.730;2022-10-16T06:36:08;7.80;;;3.47;;
48317;SDS011;34127;47.412;9.730;2022-10-16T06:38:35;10.95;;;3.50;;
48317;SDS011;34127;47.412;9.730;2022-10-16T06:41:01;6.03;;;2.80;;
48317;SDS011;34127;47.412;9.730;2022-10-16T06:43:31;8.25;;;3.42;;
48317;SDS011;34127;47.412;9.730;2022-10-16T06:45:58;10.70;;;3.33;;
48317;SDS011;34127;47.412;9.730;2022-10-16T06:48:24;5.30;;;3.00;;
48317;SDS011;34127;47.412;9.730;2022-10-16T06:51:08;7.93;;;2.83;;
48317;SDS011;34127;47.412;9.730;2022-10-16T06:53:36;7.80;;;3.47;;
48317;SDS011;34127;47.412;9.730;2022-10-16T06:56:06;5.78;;;2.60;;
48317;SDS011;34127;47.412;9.730;2022-10-16T06:58:33;4.72;;;2.90;;
48317;SDS011;34127;47.412;9.730;2022-10-16T07:00:59;9.07;;;3.15;;
48317;SDS011;34127;47.412;9.730;2022-10-16T07:03:25;9.35;;;3.35;;
48317;SDS011;34127;47.412;9.730;2022-10-16T07:05:51;7.88;;;3.05;;
48317;SDS011;34127;47.412;9.730;2022-10-16T07:08:17;6.85;;;2.17;;
48317;SDS011;34127;47.412;9.730;2022-10-16T07:10:44;9.52;;;2.75;;
48317;SDS011;34127;47.412;9.730;2022-10-16T07:13:11;9.65;;;2.70;;
48317;SDS011;34127;47.412;9.730;2022-10-16T07:15:41;11.20;;;3.72;;
48317;SDS011;34127;47.412;9.730;2022-10-16T07:18:07;6.25;;;2.25;;
48317;SDS011;34127;47.412;9.730;2022-10-16T07:20:33;5.10;;;2.25;;
48317;SDS011;34127;47.412;9.730;2022-10-16T07:22:59;5.78;;;2.33;;
48317;SDS011;34127;47.412;9.730;2022-10-16T07:25:25;6.70;;;2.50;;
48317;SDS011;34127;47.412;9.730;2022-10-16T07:27:51;4.22;;;2.17;;
48317;SDS011;34127;47.412;9.730;2022-10-16T07:30:21;6.95;;;2.40;;
48317;SDS011;34127;47.412;9.730;2022-10-16T07:32:48;5.25;;;2.67;;
48317;SDS011;34127;47.412;9.730;2022-10-16T07:35:14;4.45;;;1.92;;
48317;SDS011;34127;47.412;9.730;2022-10-16T07:37:43;5.55;;;1.90;;
48317;SDS011;34127;47.412;9.730;2022-10-16T07:40:11;6.43;;;2.30;;
48317;SDS011;34127;47.412;9.730;2022-10-16T07:42:37;6.70;;;2.00;;
48317;SDS011;34127;47.412;9.730;2022-10-16T07:45:03;5.65;;;1.98;;
48317;SDS011;34127;47.412;9.730;2022-10-16T07:47:29;4.88;;;2.03;;
48317;SDS011;34127;47.412;9.730;2022-10-16T07:49:55;4.20;;;2.00;;
48317;SDS011;34127;47.412;9.730;2022-10-16T07:52:21;6.18;;;2.60;;
48317;SDS011;34127;47.412;9.730;2022-10-16T07:54:47;6.65;;;1.98;;
48317;SDS011;34127;47.412;9.730;2022-10-16T07:57:14;5.07;;;2.10;;
48317;SDS011;34127;47.412;9.730;2022-10-16T07:59:44;6.03;;;2.10;;
48317;SDS011;34127;47.412;9.730;2022-10-16T08:02:11;5.25;;;1.80;;
48317;SDS011;34127;47.412;9.730;2022-10-16T08:04:37;6.93;;;1.80;;
48317;SDS011;34127;47.412;9.730;2022-10-16T08:07:03;4.78;;;2.05;;
48317;SDS011;34127;47.412;9.730;2022-10-16T08:09:29;5.25;;;2.10;;
48317;SDS011;34127;47.412;9.730;2022-10-16T08:11:56;4.13;;;2.08;;
48317;SDS011;34127;47.412;9.730;2022-10-16T08:14:22;3.75;;;1.90;;
48317;SDS011;34127;47.412;9.730;2022-10-16T08:16:48;6.65;;;1.83;;
48317;SDS011;34127;47.412;9.730;2022-10-16T08:19:14;4.25;;;1.95;;
48317;SDS011;34127;47.412;9.730;2022-10-16T08:21:40;6.80;;;1.90;;
48317;SDS011;34127;47.412;9.730;2022-10-16T08:24:06;5.55;;;2.35;;
48317;SDS011;34127;47.412;9.730;2022-10-16T08:26:33;3.00;;;1.77;;
48317;SDS011;34127;47.412;9.730;2022-10-16T08:28:59;4.88;;;2.00;;
48317;SDS011;34127;47.412;9.730;2022-10-16T08:31:26;3.92;;;1.58;;
48317;SDS011;34127;47.412;9.730;2022-10-16T08:33:52;5.22;;;1.88;;
48317;SDS011;34127;47.412;9.730;2022-10-16T08:36:18;3.42;;;1.70;;
48317;SDS011;34127;47.412;9.730;2022-10-16T08:38:47;5.60;;;1.75;;
48317;SDS011;34127;47.412;9.730;2022-10-16T08:44:14;3.85;;;2.10;;
48317;SDS011;34127;47.412;9.730;2022-10-16T08:49:25;5.95;;;1.90;;
48317;SDS011;34127;47.412;9.730;2022-10-16T08:51:51;5.18;;;1.70;;
48317;SDS011;34127;47.412;9.730;2022-10-16T08:54:22;2.90;;;1.70;;
48317;SDS011;34127;47.412;9.730;2022-10-16T08:56:49;3.30;;;1.80;;
48317;SDS011;34127;47.412;9.730;2022-10-16T08:59:16;3.88;;;1.70;;
48317;SDS011;34127;47.412;9.730;2022-10-16T09:01:46;4.57;;;1.95;;
48317;SDS011;34127;47.412;9.730;2022-10-16T09:11:53;4.15;;;1.70;;
48317;SDS011;34127;47.412;9.730;2022-10-16T09:15:24;5.63;;;1.80;;
48317;SDS011;34127;47.412;9.730;2022-10-16T09:19:54;2.30;;;1.50;;
48317;SDS011;34127;47.412;9.730;2022-10-16T09:22:24;5.53;;;1.70;;
48317;SDS011;34127;47.412;9.730;2022-10-16T09:24:51;4.53;;;1.75;;
48317;SDS011;34127;47.412;9.730;2022-10-16T09:27:17;4.85;;;1.70;;
48317;SDS011;34127;47.412;9.730;2022-10-16T09:29:43;5.88;;;1.80;;
48317;SDS011;34127;47.412;9.730;2022-10-16T09:32:14;3.55;;;1.60;;
48317;SDS011;34127;47.412;9.730;2022-10-16T09:34:51;5.22;;;1.70;;
48317;SDS011;34127;47.412;9.730;2022-10-16T09:37:18;4.80;;;1.73;;
48317;SDS011;34127;47.412;9.730;2022-10-16T09:39:48;4.38;;;1.70;;
48317;SDS011;34127;47.412;9.730;2022-10-16T09:42:18;5.07;;;1.75;;
48317;SDS011;34127;47.412;9.730;2022-10-16T09:44:51;5.22;;;2.13;;
48317;SDS011;34127;47.412;9.730;2022-10-16T09:47:19;3.63;;;1.60;;
48317;SDS011;34127;47.412;9.730;2022-10-16T09:49:50;3.78;;;1.85;;
48317;SDS011;34127;47.412;9.730;2022-10-16T09:52:18;3.25;;;1.50;;
48317;SDS011;34127;47.412;9.730;2022-10-16T09:54:54;3.17;;;1.60;;
48317;SDS011;34127;47.412;9.730;2022-10-16T09:57:21;3.20;;;1.67;;
48317;SDS011;34127;47.412;9.730;2022-10-16T10:02:14;4.25;;;1.77;;
48317;SDS011;34127;47.412;9.730;2022-10-16T10:04:48;4.35;;;1.70;;
48317;SDS011;34127;47.412;9.730;2022-10-16T10:07:16;6.70;;;1.85;;
48317;SDS011;34127;47.412;9.730;2022-10-16T10:09:43;3.83;;;1.67;;
48317;SDS011;34127;47.412;9.730;2022-10-16T10:12:19;7.90;;;1.67;;
48317;SDS011;34127;47.412;9.730;2022-10-16T10:14:49;3.83;;;1.65;;
48317;SDS011;34127;47.412;9.730;2022-10-16T10:17:20;4.95;;;1.70;;
48317;SDS011;34127;47.412;9.730;2022-10-16T10:22:21;4.13;;;1.75;;
48317;SDS011;34127;47.412;9.730;2022-10-16T10:24:55;3.47;;;1.73;;
48317;SDS011;34127;47.412;9.730;2022-10-16T10:27:21;3.60;;;1.80;;
48317;SDS011;34127;47.412;9.730;2022-10-16T10:29:54;4.63;;;1.83;;
48317;SDS011;34127;47.412;9.730;2022-10-16T10:40:28;3.30;;;1.70;;
48317;SDS011;34127;47.412;9.730;2022-10-16T10:45:53;4.57;;;1.60;;
48317;SDS011;34127;47.412;9.730;2022-10-16T10:50:49;5.78;;;1.83;;
48317;SDS011;34127;47.412;9.730;2022-10-16T11:01:41;5.70;;;2.15;;
48317;SDS011;34127;47.412;9.730;2022-10-16T11:06:44;4.15;;;1.90;;
48317;SDS011;34127;47.412;9.730;2022-10-16T11:09:17;2.92;;;1.70;;
48317;SDS011;34127;47.412;9.730;2022-10-16T11:11:49;3.53;;;2.00;;
48317;SDS011;34127;47.412;9.730;2022-10-16T11:14:19;4.90;;;1.80;;
48317;SDS011;34127;47.412;9.730;2022-10-16T11:22:15;4.25;;;1.83;;
48317;SDS011;34127;47.412;9.730;2022-10-16T11:24:48;3.13;;;1.63;;
48317;SDS011;34127;47.412;9.730;2022-10-16T11:27:19;5.90;;;3.00;;
48317;SDS011;34127;47.412;9.730;2022-10-16T11:29:48;5.28;;;1.98;;
48317;SDS011;34127;47.412;9.730;2022-10-16T11:32:23;3.55;;;1.60;;
48317;SDS011;34127;47.412;9.730;2022-10-16T11:34:52;5.55;;;1.80;;
48317;SDS011;34127;47.412;9.730;2022-10-16T11:37:20;3.13;;;1.70;;
48317;SDS011;34127;47.412;9.730;2022-10-16T11:39:49;4.20;;;1.70;;
48317;SDS011;34127;47.412;9.730;2022-10-16T11:42:16;4.07;;;1.70;;
48317;SDS011;34127;47.412;9.730;2022-10-16T11:49:37;3.70;;;1.70;;
48317;SDS011;34127;47.412;9.730;2022-10-16T11:52:11;3.60;;;1.70;;
48317;SDS011;34127;47.412;9.730;2022-10-16T11:54:45;3.53;;;1.90;;
48317;SDS011;34127;47.412;9.730;2022-10-16T11:57:15;4.35;;;1.90;;
48317;SDS011;34127;47.412;9.730;2022-10-16T12:00:05;4.60;;;1.92;;
48317;SDS011;34127;47.412;9.730;2022-10-16T12:07:51;7.72;;;1.75;;
48317;SDS011;34127;47.412;9.730;2022-10-16T12:10:20;3.92;;;1.70;;
48317;SDS011;34127;47.412;9.730;2022-10-16T12:12:47;3.08;;;1.80;;
48317;SDS011;34127;47.412;9.730;2022-10-16T12:17:45;3.80;;;1.70;;
48317;SDS011;34127;47.412;9.730;2022-10-16T12:22:51;3.92;;;1.70;;
48317;SDS011;34127;47.412;9.730;2022-10-16T12:25:38;3.70;;;1.70;;
48317;SDS011;34127;47.412;9.730;2022-10-16T12:30:40;2.30;;;1.42;;
48317;SDS011;34127;47.412;9.730;2022-10-16T12:33:21;3.15;;;1.70;;
48317;SDS011;34127;47.412;9.730;2022-10-16T12:35:48;3.10;;;1.90;;
48317;SDS011;34127;47.412;9.730;2022-10-16T12:38:15;3.17;;;1.80;;
48317;SDS011;34127;47.412;9.730;2022-10-16T12:40:43;4.25;;;1.58;;
48317;SDS011;34127;47.412;9.730;2022-10-16T12:43:11;5.55;;;1.70;;
48317;SDS011;34127;47.412;9.730;2022-10-16T12:45:38;7.13;;;4.38;;
48317;SDS011;34127;47.412;9.730;2022-10-16T12:48:17;4.50;;;2.17;;
48317;SDS011;34127;47.412;9.730;2022-10-16T12:50:44;7.00;;;2.63;;
48317;SDS011;34127;47.412;9.730;2022-10-16T12:53:26;6.38;;;3.10;;
48317;SDS011;34127;47.412;9.730;2022-10-16T12:55:59;6.50;;;2.17;;
48317;SDS011;34127;47.412;9.730;2022-10-16T13:01:15;3.17;;;1.70;;
48317;SDS011;34127;47.412;9.730;2022-10-16T13:03:55;3.30;;;1.55;;
48317;SDS011;34127;47.412;9.730;2022-10-16T13:11:31;4.50;;;2.33;;
48317;SDS011;34127;47.412;9.730;2022-10-16T13:16:55;5.00;;;2.50;;
48317;SDS011;34127;47.412;9.730;2022-10-16T13:26:58;5.68;;;2.40;;
48317;SDS011;34127;47.412;9.730;2022-10-16T13:29:31;4.03;;;2.60;;
48317;SDS011;34127;47.412;9.730;2022-10-16T13:31:58;5.15;;;2.67;;
48317;SDS011;34127;47.412;9.730;2022-10-16T13:34:24;6.10;;;2.90;;
48317;SDS011;34127;47.412;9.730;2022-10-16T13:36:52;8.27;;;2.60;;
48317;SDS011;34127;47.412;9.730;2022-10-16T13:39:23;4.60;;;2.83;;
48317;SDS011;34127;47.412;9.730;2022-10-16T13:42:05;7.22;;;2.80;;
48317;SDS011;34127;47.412;9.730;2022-10-16T13:44:39;4.95;;;2.50;;
48317;SDS011;34127;47.412;9.730;2022-10-16T13:47:10;7.15;;;2.70;;
48317;SDS011;34127;47.412;9.730;2022-10-16T13:49:40;5.50;;;2.75;;
48317;SDS011;34127;47.412;9.730;2022-10-16T13:52:15;4.68;;;2.40;;
48317;SDS011;34127;47.412;9.730;2022-10-16T13:54:42;5.40;;;2.60;;
48317;SDS011;34127;47.412;9.730;2022-10-16T13:57:11;7.35;;;2.40;;
48317;SDS011;34127;47.412;9.730;2022-10-16T13:59:38;5.03;;;2.38;;
48317;SDS011;34127;47.412;9.730;2022-10-16T14:02:05;6.13;;;2.83;;
48317;SDS011;34127;47.412;9.730;2022-10-16T14:04:34;5.93;;;2.60;;
48317;SDS011;34127;47.412;9.730;2022-10-16T14:07:04;9.25;;;2.70;;
48317;SDS011;34127;47.412;9.730;2022-10-16T14:09:30;4.15;;;2.30;;
48317;SDS011;34127;47.412;9.730;2022-10-16T14:12:02;4.65;;;2.30;;
48317;SDS011;34127;47.412;9.730;2022-10-16T14:14:47;8.48;;;2.65;;
48317;SDS011;34127;47.412;9.730;2022-10-16T14:17:35;9.27;;;2.40;;
48317;SDS011;34127;47.412;9.730;2022-10-16T14:22:30;5.45;;;2.30;;
48317;SDS011;34127;47.412;9.730;2022-10-16T14:24:57;4.70;;;2.70;;
48317;SDS011;34127;47.412;9.730;2022-10-16T14:27:33;4.15;;;2.22;;
48317;SDS011;34127;47.412;9.730;2022-10-16T14:32:40;5.95;;;3.42;;
48317;SDS011;34127;47.412;9.730;2022-10-16T14:35:27;6.63;;;2.30;;
48317;SDS011;34127;47.412;9.730;2022-10-16T14:40:20;4.57;;;2.42;;
48317;SDS011;34127;47.412;9.730;2022-10-16T14:42:48;5.13;;;2.50;;
48317;SDS011;34127;47.412;9.730;2022-10-16T14:45:15;4.13;;;2.60;;
48317;SDS011;34127;47.412;9.730;2022-10-16T14:47:54;3.63;;;2.53;;
48317;SDS011;34127;47.412;9.730;2022-10-16T14:50:21;3.50;;;2.28;;
48317;SDS011;34127;47.412;9.730;2022-10-16T14:52:48;5.65;;;2.90;;
48317;SDS011;34127;47.412;9.730;2022-10-16T14:55:14;4.82;;;2.60;;
48317;SDS011;34127;47.412;9.730;2022-10-16T14:57:40;5.80;;;2.60;;
48317;SDS011;34127;47.412;9.730;2022-10-16T15:02:43;6.00;;;3.53;;
48317;SDS011;34127;47.412;9.730;2022-10-16T15:05:20;6.15;;;2.75;;
48317;SDS011;34127;47.412;9.730;2022-10-16T15:07:51;4.25;;;2.80;;
48317;SDS011;34127;47.412;9.730;2022-10-16T15:10:18;5.15;;;2.78;;
48317;SDS011;34127;47.412;9.730;2022-10-16T15:12:45;6.55;;;2.60;;
48317;SDS011;34127;47.412;9.730;2022-10-16T15:17:37;5.93;;;2.60;;
48317;SDS011;34127;47.412;9.730;2022-10-16T15:20:04;6.30;;;2.60;;
48317;SDS011;34127;47.412;9.730;2022-10-16T15:22:30;6.70;;;2.72;;
48317;SDS011;34127;47.412;9.730;2022-10-16T15:24:56;4.40;;;2.63;;
48317;SDS011;34127;47.412;9.730;2022-10-16T15:27:22;5.72;;;2.67;;
48317;SDS011;34127;47.412;9.730;2022-10-16T15:29:48;6.43;;;2.85;;
48317;SDS011;34127;47.412;9.730;2022-10-16T15:32:15;4.03;;;2.60;;
48317;SDS011;34127;47.412;9.730;2022-10-16T15:34:41;6.72;;;3.10;;
48317;SDS011;34127;47.412;9.730;2022-10-16T15:37:08;5.25;;;2.60;;
48317;SDS011;34127;47.412;9.730;2022-10-16T15:39:36;7.20;;;3.55;;
48317;SDS011;34127;47.412;9.730;2022-10-16T15:42:03;6.60;;;3.38;;
48317;SDS011;34127;47.412;9.730;2022-10-16T15:44:30;4.65;;;3.45;;
48317;SDS011;34127;47.412;9.730;2022-10-16T15:46:57;5.57;;;2.90;;
48317;SDS011;34127;47.412;9.730;2022-10-16T15:49:23;5.00;;;3.45;;
48317;SDS011;34127;47.412;9.730;2022-10-16T15:51:49;8.88;;;3.78;;
48317;SDS011;34127;47.412;9.730;2022-10-16T15:54:18;7.90;;;3.03;;
48317;SDS011;34127;47.412;9.730;2022-10-16T15:56:46;6.68;;;3.33;;
48317;SDS011;34127;47.412;9.730;2022-10-16T15:59:13;6.38;;;3.58;;
48317;SDS011;34127;47.412;9.730;2022-10-16T16:01:39;12.30;;;3.50;;
48317;SDS011;34127;47.412;9.730;2022-10-16T16:04:05;11.25;;;3.33;;
48317;SDS011;34127;47.412;9.730;2022-10-16T16:06:31;9.38;;;3.30;;
48317;SDS011;34127;47.412;9.730;2022-10-16T16:08:58;8.02;;;3.13;;
48317;SDS011;34127;47.412;9.730;2022-10-16T16:11:24;4.28;;;2.80;;
48317;SDS011;34127;47.412;9.730;2022-10-16T16:13:51;6.93;;;2.80;;
48317;SDS011;34127;47.412;9.730;2022-10-16T16:16:17;10.55;;;2.83;;
48317;SDS011;34127;47.412;9.730;2022-10-16T16:18:45;6.38;;;2.60;;
48317;SDS011;34127;47.412;9.730;2022-10-16T16:21:13;7.63;;;2.70;;
48317;SDS011;34127;47.412;9.730;2022-10-16T16:23:39;6.93;;;2.70;;
48317;SDS011;34127;47.412;9.730;2022-10-16T16:26:13;9.13;;;3.03;;
48317;SDS011;34127;47.412;9.730;2022-10-16T16:28:40;7.05;;;2.80;;
48317;SDS011;34127;47.412;9.730;2022-10-16T16:31:06;9.48;;;3.17;;
48317;SDS011;34127;47.412;9.730;2022-10-16T16:33:33;13.65;;;3.35;;
48317;SDS011;34127;47.412;9.730;2022-10-16T16:36:00;5.38;;;3.30;;
48317;SDS011;34127;47.412;9.730;2022-10-16T16:38:26;10.80;;;3.42;;
48317;SDS011;34127;47.412;9.730;2022-10-16T16:40:53;9.90;;;2.83;;
48317;SDS011;34127;47.412;9.730;2022-10-16T16:43:22;4.60;;;2.70;;
48317;SDS011;34127;47.412;9.730;2022-10-16T16:45:48;5.72;;;2.72;;
48317;SDS011;34127;47.412;9.730;2022-10-16T16:48:15;4.80;;;2.50;;